createdAt,value
2019-04-14T00:00:55.386Z,3.40
2019-04-14T00:03:26.102Z,3.40
2019-04-14T00:05:56.518Z,3.30
2019-04-14T00:08:26.263Z,3.30
2019-04-14T00:10:55.127Z,3.20
2019-04-14T00:13:23.915Z,3.20
2019-04-14T00:15:53.803Z,3.20
2019-04-14T00:18:23.156Z,3.20
2019-04-14T00:20:51.638Z,3.30
2019-04-14T00:23:20.204Z,3.30
2019-04-14T00:25:48.686Z,3.30
2019-04-14T00:28:17.162Z,3.30
2019-04-14T00:30:46.909Z,3.30
2019-04-14T00:33:19.926Z,3.30
2019-04-14T00:35:56.038Z,3.20
2019-04-14T00:38:30.129Z,3.30
2019-04-14T00:41:07.109Z,3.20
2019-04-14T00:43:37.491Z,3.00
2019-04-14T00:46:14.438Z,3.00
2019-04-14T00:48:45.165Z,3.00
2019-04-14T00:51:14.028Z,3.00
2019-04-14T00:53:42.558Z,2.90
2019-04-14T00:56:11.177Z,2.90
2019-04-14T00:58:39.648Z,2.90
2019-04-14T01:01:09.062Z,2.80
2019-04-14T01:03:37.888Z,2.80
2019-04-14T01:06:07.543Z,2.80
2019-04-14T01:08:36.480Z,2.90
2019-04-14T01:11:05.293Z,2.90
2019-04-14T01:13:35.291Z,2.80
2019-04-14T01:16:11.539Z,2.90
2019-04-14T01:18:34.215Z,2.90
2019-04-14T01:21:02.766Z,2.90
2019-04-14T01:23:32.615Z,2.90
2019-04-14T01:26:01.251Z,2.90
2019-04-14T01:28:30.715Z,2.90
2019-04-14T01:30:59.584Z,3.00
2019-04-14T01:33:29.289Z,3.00
2019-04-14T01:35:59.508Z,3.00
2019-04-14T01:38:29.640Z,3.00
2019-04-14T01:40:59.825Z,3.00
2019-04-14T01:43:29.978Z,3.00
2019-04-14T01:46:07.864Z,3.10
2019-04-14T01:48:30.019Z,2.90
2019-04-14T01:51:07.076Z,2.80
2019-04-14T01:53:44.607Z,2.80
2019-04-14T01:56:14.762Z,2.80
2019-04-14T01:58:44.960Z,2.80
2019-04-14T02:01:15.092Z,2.80
2019-04-14T02:03:43.619Z,2.70
2019-04-14T02:06:12.180Z,2.70
2019-04-14T02:08:41.511Z,2.60
2019-04-14T02:11:11.515Z,2.60
2019-04-14T02:13:40.380Z,2.60
2019-04-14T02:16:18.882Z,2.70
2019-04-14T02:18:40.468Z,2.70
2019-04-14T02:21:10.645Z,2.60
2019-04-14T02:23:39.473Z,2.60
2019-04-14T02:26:09.143Z,2.70
2019-04-14T02:28:37.935Z,2.70
2019-04-14T02:31:18.086Z,2.70
2019-04-14T02:34:08.004Z,2.60
2019-04-14T02:39:06.405Z,2.50
2019-04-14T02:44:15.396Z,2.40
2019-04-14T02:46:41.947Z,2.50
2019-04-14T02:49:08.193Z,2.40
2019-04-14T02:51:33.556Z,2.30
2019-04-14T02:54:07.405Z,2.20
2019-04-14T02:56:40.593Z,2.20
2019-04-14T02:59:05.632Z,2.20
2019-04-14T03:04:09.060Z,2.20
2019-04-14T03:06:33.677Z,2.30
2019-04-14T03:09:19.053Z,2.30
2019-04-14T03:11:43.590Z,2.30
2019-04-14T03:14:11.750Z,2.30
2019-04-14T03:17:14.650Z,2.30
2019-04-14T03:19:46.533Z,2.30
2019-04-14T03:22:25.975Z,2.30
2019-04-14T03:24:37.584Z,2.20
2019-04-14T03:27:36.089Z,2.20
2019-04-14T03:29:58.405Z,2.20
2019-04-14T03:33:00.713Z,2.10
2019-04-14T03:35:03.515Z,2.10
2019-04-14T03:42:36.072Z,2.10
2019-04-14T03:44:56.778Z,2.00
2019-04-14T03:47:25.426Z,2.10
2019-04-14T03:50:02.537Z,2.10
2019-04-14T03:52:34.459Z,2.20
2019-04-14T03:54:52.652Z,2.10
2019-04-14T03:57:04.076Z,2.10
2019-04-14T03:59:32.576Z,2.00
2019-04-14T04:02:01.553Z,2.00
2019-04-14T04:04:31.543Z,2.00
2019-04-14T04:07:00.186Z,2.10
2019-04-14T04:09:30.779Z,2.10
2019-04-14T04:12:00.519Z,2.10
2019-04-14T04:14:31.249Z,2.20
2019-04-14T04:17:17.467Z,2.20
2019-04-14T04:19:47.679Z,2.10
2019-04-14T04:22:21.892Z,2.10
2019-04-14T04:24:52.356Z,2.00
2019-04-14T04:27:40.561Z,2.00
2019-04-14T04:30:27.603Z,2.00
2019-04-14T04:33:02.236Z,1.90
2019-04-14T04:35:32.630Z,1.80
2019-04-14T04:38:18.666Z,1.80
2019-04-14T04:40:48.451Z,1.80
2019-04-14T04:43:17.329Z,1.70
2019-04-14T04:45:45.856Z,1.70
2019-04-14T04:48:15.225Z,1.60
2019-04-14T04:50:45.241Z,1.70
2019-04-14T04:53:14.174Z,1.70
2019-04-14T04:55:43.790Z,1.70
2019-04-14T04:58:13.141Z,1.70
2019-04-14T05:00:41.764Z,1.80
2019-04-14T05:03:10.256Z,1.80
2019-04-14T05:05:58.591Z,1.80
2019-04-14T05:08:28.316Z,1.70
2019-04-14T05:11:10.788Z,1.70
2019-04-14T05:13:40.523Z,1.70
2019-04-14T05:16:10.666Z,1.80
2019-04-14T05:18:39.874Z,1.80
2019-04-14T05:21:08.710Z,1.90
2019-04-14T05:23:37.176Z,1.90
2019-04-14T05:26:06.937Z,1.80
2019-04-14T05:28:35.756Z,1.90
2019-04-14T05:31:05.354Z,1.90
2019-04-14T05:33:36.016Z,1.90
2019-04-14T05:36:04.876Z,2.00
2019-04-14T05:38:34.407Z,2.00
2019-04-14T05:41:04.720Z,2.00
2019-04-14T05:43:40.618Z,2.00
2019-04-14T05:46:03.581Z,2.10
2019-04-14T05:48:32.095Z,2.30
2019-04-14T05:51:00.543Z,2.40
2019-04-14T05:53:29.021Z,2.70
2019-04-14T05:55:57.509Z,2.70
2019-04-14T05:58:25.978Z,2.70
2019-04-14T06:00:55.734Z,2.70
2019-04-14T06:03:25.571Z,2.60
2019-04-14T06:05:54.441Z,2.60
2019-04-14T06:08:23.065Z,2.60
2019-04-14T06:10:51.639Z,2.70
2019-04-14T06:13:20.241Z,2.70
2019-04-14T06:15:48.869Z,2.70
2019-04-14T06:18:17.348Z,2.60
2019-04-14T06:20:45.875Z,2.50
2019-04-14T06:23:14.381Z,2.50
2019-04-14T06:25:42.954Z,2.50
2019-04-14T06:28:11.569Z,2.40
2019-04-14T06:30:57.781Z,2.30
2019-04-14T06:33:27.990Z,2.30
2019-04-14T06:36:07.158Z,2.20
2019-04-14T06:38:46.075Z,2.30
2019-04-14T06:41:16.372Z,2.30
2019-04-14T06:43:49.125Z,2.40
2019-04-14T06:46:15.036Z,2.40
2019-04-14T06:48:44.357Z,2.20
2019-04-14T06:51:12.812Z,1.90
2019-04-14T06:53:41.295Z,1.90
2019-04-14T06:56:09.845Z,1.80
2019-04-14T06:58:38.298Z,1.80
2019-04-14T07:01:06.789Z,2.00
2019-04-14T07:03:35.255Z,2.20
2019-04-14T07:06:03.728Z,2.20
2019-04-14T07:08:32.248Z,2.20
2019-04-14T07:11:00.767Z,2.20
2019-04-14T07:13:29.513Z,2.10
2019-04-14T07:15:57.968Z,2.10
2019-04-14T07:18:26.446Z,2.20
2019-04-14T07:20:54.917Z,2.20
2019-04-14T07:23:23.372Z,2.40
2019-04-14T07:25:51.829Z,2.40
2019-04-14T07:28:20.279Z,2.40
2019-04-14T07:31:02.669Z,2.60
2019-04-14T07:33:32.769Z,2.70
2019-04-14T07:36:10.899Z,2.90
2019-04-14T07:38:40.998Z,2.90
2019-04-14T07:41:13.867Z,2.90
2019-04-14T07:43:46.462Z,3.00
2019-04-14T07:46:31.334Z,3.10
2019-04-14T07:49:01.508Z,3.20
2019-04-14T07:51:47.840Z,3.30
2019-04-14T07:54:18.210Z,3.30
2019-04-14T07:57:00.366Z,3.30
2019-04-14T07:59:46.910Z,3.30
2019-04-14T08:02:17.415Z,3.30
2019-04-14T08:04:47.645Z,3.20
2019-04-14T08:07:16.501Z,3.10
2019-04-14T08:09:44.995Z,3.00
2019-04-14T08:12:13.534Z,2.90
2019-04-14T08:14:42.014Z,3.00
2019-04-14T08:17:10.547Z,3.00
2019-04-14T08:19:39.050Z,3.20
2019-04-14T08:22:07.648Z,3.30
2019-04-14T08:24:36.096Z,3.30
2019-04-14T08:27:04.707Z,3.40
2019-04-14T08:29:33.417Z,3.40
2019-04-14T08:32:01.944Z,3.50
2019-04-14T08:34:30.432Z,3.80
2019-04-14T08:36:58.912Z,3.70
2019-04-14T08:39:27.447Z,3.60
2019-04-14T08:42:06.742Z,3.80
2019-04-14T08:44:39.897Z,3.80
2019-04-14T08:47:22.470Z,3.90
2019-04-14T08:49:55.622Z,3.80
2019-04-14T08:52:28.999Z,3.80
2019-04-14T08:54:59.109Z,4.00
2019-04-14T08:57:41.056Z,4.20
2019-04-14T09:00:14.289Z,4.30
2019-04-14T09:02:53.725Z,4.40
2019-04-14T09:05:42.139Z,4.50
2019-04-14T09:08:21.563Z,4.50
2019-04-14T09:11:07.063Z,4.60
2019-04-14T09:13:35.536Z,4.60
2019-04-14T09:16:04.017Z,4.60
2019-04-14T09:18:32.515Z,4.80
2019-04-14T09:21:01.001Z,5.00
2019-04-14T09:23:29.533Z,5.10
2019-04-14T09:25:58.085Z,5.20
2019-04-14T09:28:26.605Z,5.30
2019-04-14T09:30:55.130Z,5.30
2019-04-14T09:33:23.589Z,5.30
2019-04-14T09:35:52.050Z,5.40
2019-04-14T09:38:20.901Z,5.50
2019-04-14T09:40:49.669Z,5.90
2019-04-14T09:43:18.142Z,6.30
2019-04-14T09:45:46.709Z,6.70
2019-04-14T09:48:15.234Z,6.90
2019-04-14T09:50:44.331Z,7.00
2019-04-14T09:53:12.813Z,7.00
2019-04-14T09:55:41.271Z,7.30
2019-04-14T09:58:09.837Z,7.40
2019-04-14T10:00:40.292Z,7.50
2019-04-14T10:03:09.741Z,7.60
2019-04-14T10:05:38.291Z,7.60
2019-04-14T10:08:06.766Z,7.80
2019-04-14T10:10:35.336Z,8.10
2019-04-14T10:13:03.980Z,8.30
2019-04-14T10:15:32.446Z,8.40
2019-04-14T10:18:00.927Z,8.30
2019-04-14T10:20:29.430Z,8.30
2019-04-14T10:22:57.937Z,8.20
2019-04-14T10:25:26.541Z,8.10
2019-04-14T10:27:55.147Z,8.10
2019-04-14T10:30:23.712Z,8.10
2019-04-14T10:32:52.265Z,8.30
2019-04-14T10:35:20.759Z,8.60
2019-04-14T10:37:49.242Z,8.80
2019-04-14T10:40:17.707Z,8.80
2019-04-14T10:42:46.289Z,8.90
2019-04-14T10:45:14.825Z,8.70
2019-04-14T10:47:43.319Z,8.50
2019-04-14T10:50:11.918Z,8.20
2019-04-14T10:52:40.381Z,7.90
2019-04-14T10:55:09.100Z,8.00
2019-04-14T10:57:37.560Z,8.40
2019-04-14T11:00:10.695Z,8.80
2019-04-14T11:02:39.202Z,8.90
2019-04-14T11:05:08.007Z,9.10
2019-04-14T11:07:36.489Z,9.10
2019-04-14T11:10:07.666Z,8.90
2019-04-14T11:12:36.139Z,8.60
2019-04-14T11:15:07.024Z,8.40
2019-04-14T11:17:35.523Z,8.30
2019-04-14T11:20:07.178Z,8.10
2019-04-14T11:22:35.701Z,8.10
2019-04-14T11:25:06.681Z,8.10
2019-04-14T11:27:35.204Z,8.00
2019-04-14T11:30:06.706Z,8.00
2019-04-14T11:32:39.526Z,8.10
2019-04-14T11:35:10.180Z,8.10
2019-04-14T11:37:40.309Z,8.10
2019-04-14T11:40:10.684Z,8.00
2019-04-14T11:42:51.633Z,7.70
2019-04-14T11:45:09.530Z,7.50
2019-04-14T11:47:38.040Z,7.60
2019-04-14T11:50:09.556Z,7.60
2019-04-14T11:52:39.641Z,7.80
2019-04-14T11:55:18.729Z,8.00
2019-04-14T11:57:41.910Z,8.10
2019-04-14T12:00:14.839Z,8.10
2019-04-14T12:02:47.792Z,8.10
2019-04-14T12:05:34.370Z,8.10
2019-04-14T12:08:21.071Z,7.90
2019-04-14T12:10:49.555Z,7.90
2019-04-14T12:13:18.091Z,7.70
2019-04-14T12:15:47.875Z,7.70
2019-04-14T12:18:16.386Z,7.60
2019-04-14T12:20:45.138Z,7.70
2019-04-14T12:23:15.957Z,7.70
2019-04-14T12:25:43.829Z,8.00
2019-04-14T12:28:13.375Z,8.10
2019-04-14T12:30:42.324Z,8.20
2019-04-14T12:33:10.883Z,8.20
2019-04-14T12:35:39.403Z,8.10
2019-04-14T12:38:07.917Z,7.90
2019-04-14T12:40:36.935Z,7.70
2019-04-14T12:43:07.256Z,7.60
2019-04-14T12:45:53.707Z,7.70
2019-04-14T12:48:29.916Z,7.70
2019-04-14T12:51:00.046Z,7.80
2019-04-14T12:53:28.522Z,7.80
2019-04-14T12:55:57.037Z,7.80
2019-04-14T12:58:27.493Z,7.90
2019-04-14T13:00:57.729Z,8.00
2019-04-14T13:03:26.252Z,8.00
2019-04-14T13:05:54.751Z,7.80
2019-04-14T13:08:23.348Z,7.70
2019-04-14T13:10:51.880Z,7.90
2019-04-14T13:13:21.031Z,7.90
2019-04-14T13:15:55.723Z,7.80
2019-04-14T13:18:23.378Z,7.80
2019-04-14T13:20:51.966Z,7.80
2019-04-14T13:23:21.362Z,7.90
2019-04-14T13:25:49.882Z,8.10
2019-04-14T13:28:18.362Z,8.20
2019-04-14T13:30:48.280Z,8.30
2019-04-14T13:33:16.778Z,8.60
2019-04-14T13:35:45.379Z,8.80
2019-04-14T13:38:13.973Z,8.80
2019-04-14T13:40:43.995Z,8.70
2019-04-14T13:43:12.457Z,8.60
2019-04-14T13:45:40.935Z,8.70
2019-04-14T13:48:09.487Z,8.90
2019-04-14T13:50:37.945Z,9.20
2019-04-14T13:53:06.447Z,9.20
2019-04-14T13:55:34.896Z,9.30
2019-04-14T13:58:03.398Z,9.30
2019-04-14T14:00:31.922Z,9.30
2019-04-14T14:03:00.473Z,9.50
2019-04-14T14:05:28.969Z,9.50
2019-04-14T14:07:57.793Z,9.60
2019-04-14T14:10:26.342Z,9.40
2019-04-14T14:13:07.988Z,9.70
2019-04-14T14:15:38.298Z,9.70
2019-04-14T14:18:24.943Z,10.00
2019-04-14T14:21:11.288Z,10.20
2019-04-14T14:23:41.423Z,10.20
2019-04-14T14:26:20.845Z,10.30
2019-04-14T14:28:49.313Z,10.40
2019-04-14T14:31:19.052Z,10.20
2019-04-14T14:33:47.645Z,10.10
2019-04-14T14:36:16.204Z,10.20
2019-04-14T14:38:44.713Z,10.40
2019-04-14T14:41:14.921Z,10.50
2019-04-14T14:43:43.546Z,10.60
2019-04-14T14:46:30.003Z,10.70
2019-04-14T14:49:00.212Z,10.90
2019-04-14T14:51:32.839Z,11.00
2019-04-14T14:54:01.322Z,11.00
2019-04-14T14:56:29.820Z,10.60
2019-04-14T14:58:58.381Z,10.50
2019-04-14T15:01:26.915Z,10.50
2019-04-14T15:03:55.486Z,10.60
2019-04-14T15:06:24.038Z,10.50
2019-04-14T15:08:52.562Z,10.50
2019-04-14T15:11:21.192Z,10.50
2019-04-14T15:13:49.796Z,10.70
2019-04-14T15:16:18.385Z,10.80
2019-04-14T15:18:46.990Z,10.60
2019-04-14T15:21:15.639Z,10.50
2019-04-14T15:23:44.196Z,10.40
2019-04-14T15:26:13.000Z,10.40
2019-04-14T15:28:41.464Z,10.50
2019-04-14T15:31:10.230Z,10.50
2019-04-14T15:33:38.714Z,10.60
2019-04-14T15:36:07.273Z,10.50
2019-04-14T15:38:35.746Z,10.30
2019-04-14T15:41:04.876Z,10.40
2019-04-14T15:43:33.367Z,10.40
2019-04-14T15:46:01.851Z,10.40
2019-04-14T15:48:30.657Z,10.30
2019-04-14T15:50:59.167Z,10.30
2019-04-14T15:53:37.942Z,10.20
2019-04-14T15:56:00.973Z,10.40
2019-04-14T15:58:36.915Z,10.50
2019-04-14T16:01:13.628Z,10.60
2019-04-14T16:03:58.478Z,10.50
2019-04-14T16:06:31.588Z,10.50
2019-04-14T16:09:02.116Z,10.40
2019-04-14T16:11:34.940Z,10.30
2019-04-14T16:14:21.692Z,10.10
2019-04-14T16:16:54.423Z,10.00
2019-04-14T16:19:36.823Z,10.10
2019-04-14T16:22:05.612Z,10.20
2019-04-14T16:24:34.409Z,10.30
2019-04-14T16:27:13.326Z,10.50
2019-04-14T16:29:43.457Z,10.60
2019-04-14T16:32:22.332Z,10.70
2019-04-14T16:34:55.237Z,10.90
2019-04-14T16:37:24.120Z,11.00
2019-04-14T16:39:52.603Z,11.00
2019-04-14T16:42:21.149Z,11.10
2019-04-14T16:44:49.684Z,11.10
2019-04-14T16:47:20.007Z,11.20
2019-04-14T16:49:48.486Z,11.30
2019-04-14T16:52:18.635Z,11.40
2019-04-14T16:54:51.490Z,11.50
2019-04-14T16:57:30.591Z,11.40
2019-04-14T16:59:59.098Z,11.40
2019-04-14T17:02:27.670Z,11.50
2019-04-14T17:05:00.664Z,11.50
2019-04-14T17:07:29.665Z,11.50
2019-04-14T17:09:58.158Z,11.50
2019-04-14T17:12:26.643Z,11.60
2019-04-14T17:15:02.615Z,11.70
2019-04-14T17:17:32.837Z,11.70
2019-04-14T17:20:17.582Z,11.80
2019-04-14T17:22:47.820Z,11.80
2019-04-14T17:25:17.924Z,11.90
2019-04-14T17:27:48.032Z,11.90
2019-04-14T17:30:27.237Z,11.80
2019-04-14T17:32:57.373Z,11.70
2019-04-14T17:35:30.162Z,11.60
2019-04-14T17:38:03.242Z,11.50
2019-04-14T17:40:42.239Z,11.50
2019-04-14T17:43:18.360Z,11.50
2019-04-14T17:46:04.982Z,11.50
2019-04-14T17:48:51.093Z,11.40
2019-04-14T17:51:21.219Z,11.40
2019-04-14T17:53:51.333Z,11.30
2019-04-14T17:56:32.252Z,11.20
2019-04-14T17:59:08.186Z,11.20
2019-04-14T18:01:38.499Z,11.10
2019-04-14T18:04:14.625Z,11.00
2019-04-14T18:06:44.774Z,10.90
2019-04-14T18:09:14.983Z,10.90
2019-04-14T18:12:01.323Z,10.70
2019-04-14T18:14:31.455Z,10.70
2019-04-14T18:17:17.866Z,10.50
2019-04-14T18:19:51.038Z,10.50
2019-04-14T18:22:19.515Z,10.40
2019-04-14T18:24:48.101Z,10.30
2019-04-14T18:27:16.581Z,10.30
2019-04-14T18:29:46.696Z,10.20
2019-04-14T18:32:16.955Z,10.10
2019-04-14T18:34:59.069Z,10.00
2019-04-14T18:37:45.360Z,9.80
2019-04-14T18:40:15.545Z,9.80
2019-04-14T18:43:03.424Z,9.70
2019-04-14T18:45:48.521Z,9.60
2019-04-14T18:48:27.617Z,9.70
2019-04-14T18:51:12.776Z,9.60
2019-04-14T18:53:45.620Z,9.60
2019-04-14T18:56:18.775Z,9.50
2019-04-14T18:58:48.899Z,9.30
2019-04-14T19:01:19.082Z,9.20
2019-04-14T19:03:47.611Z,9.20
2019-04-14T19:06:16.210Z,9.10
2019-04-14T19:08:44.682Z,9.10
2019-04-14T19:11:15.005Z,9.00
2019-04-14T19:13:46.143Z,9.00
2019-04-14T19:16:18.837Z,9.00
2019-04-14T19:18:48.944Z,8.90
2019-04-14T19:21:19.330Z,8.90
2019-04-14T19:23:47.806Z,8.80
2019-04-14T19:26:16.325Z,8.80
2019-04-14T19:28:44.789Z,8.80
2019-04-14T19:31:13.380Z,8.70
2019-04-14T19:33:42.324Z,8.60
2019-04-14T19:36:10.848Z,8.50
2019-04-14T19:38:39.325Z,8.50
2019-04-14T19:41:07.768Z,8.30
2019-04-14T19:43:36.520Z,8.20
2019-04-14T19:46:05.122Z,8.20
2019-04-14T19:48:33.577Z,8.10
2019-04-14T19:51:02.729Z,8.00
2019-04-14T19:53:31.191Z,8.00
2019-04-14T19:55:59.637Z,7.90
2019-04-14T19:58:28.114Z,7.90
2019-04-14T20:00:56.718Z,7.80
2019-04-14T20:03:25.197Z,7.80
2019-04-14T20:05:53.648Z,7.70
2019-04-14T20:08:22.127Z,7.70
2019-04-14T20:10:50.987Z,7.70
2019-04-14T20:13:19.815Z,7.70
2019-04-14T20:16:02.477Z,7.60
2019-04-14T20:18:41.410Z,7.60
2019-04-14T20:21:14.505Z,7.60
2019-04-14T20:23:47.159Z,7.60
2019-04-14T20:26:23.645Z,7.60
2019-04-14T20:28:59.755Z,7.50
2019-04-14T20:31:39.181Z,7.40
2019-04-14T20:34:07.796Z,7.30
2019-04-14T20:36:36.356Z,7.10
2019-04-14T20:39:07.590Z,7.00
2019-04-14T20:41:36.051Z,7.00
2019-04-14T20:44:07.318Z,7.00
2019-04-14T20:46:35.855Z,7.10
2019-04-14T20:49:04.398Z,7.10
2019-04-14T20:51:32.864Z,7.20
2019-04-14T20:54:01.321Z,7.30
2019-04-14T20:56:29.784Z,7.40
2019-04-14T20:58:58.260Z,7.30
2019-04-14T21:01:28.501Z,7.40
2019-04-14T21:04:04.069Z,7.30
2019-04-14T21:06:34.169Z,7.10
2019-04-14T21:09:13.393Z,7.10
2019-04-14T21:11:43.531Z,7.10
2019-04-14T21:14:16.470Z,7.10
2019-04-14T21:16:49.713Z,7.10
2019-04-14T21:19:25.574Z,7.10
2019-04-14T21:21:55.688Z,7.10
2019-04-14T21:24:28.544Z,7.00
2019-04-14T21:27:04.879Z,7.10
2019-04-14T21:29:34.981Z,7.20
2019-04-14T21:32:05.082Z,7.20
2019-04-14T21:34:51.657Z,7.30
2019-04-14T21:37:24.435Z,7.30
2019-04-14T21:39:57.222Z,7.20
2019-04-14T21:42:25.750Z,7.10
2019-04-14T21:44:54.519Z,7.10
2019-04-14T21:47:23.348Z,7.00
2019-04-14T21:49:51.888Z,7.00
2019-04-14T21:52:22.083Z,7.00
2019-04-14T21:54:50.560Z,6.90
2019-04-14T21:57:29.236Z,6.90
2019-04-14T22:00:05.402Z,6.80
2019-04-14T22:02:51.929Z,6.70
2019-04-14T22:05:40.252Z,6.70
2019-04-14T22:08:10.460Z,6.60
2019-04-14T22:10:55.804Z,6.60
2019-04-14T22:13:24.506Z,6.50
2019-04-14T22:15:53.031Z,6.50
2019-04-14T22:18:21.559Z,6.40
2019-04-14T22:20:50.488Z,6.30
2019-04-14T22:23:18.943Z,6.40
2019-04-14T22:25:47.498Z,6.40
2019-04-14T22:28:15.966Z,6.40
2019-04-14T22:30:44.482Z,6.30
2019-04-14T22:33:13.036Z,6.40
2019-04-14T22:35:41.506Z,6.30
2019-04-14T22:38:10.072Z,6.30
2019-04-14T22:40:38.610Z,6.30
2019-04-14T22:43:07.066Z,6.20
2019-04-14T22:45:35.610Z,6.30
2019-04-14T22:48:04.528Z,6.20
2019-04-14T22:50:33.002Z,6.30
2019-04-14T22:53:01.738Z,6.20
2019-04-14T22:55:30.561Z,6.30
2019-04-14T22:57:59.042Z,6.20
2019-04-14T23:00:41.188Z,6.20
2019-04-14T23:03:23.242Z,6.20
2019-04-14T23:05:53.424Z,6.20
2019-04-14T23:08:41.553Z,6.10
2019-04-14T23:11:20.136Z,6.20
2019-04-14T23:14:06.393Z,6.10
2019-04-14T23:16:53.180Z,5.90
2019-04-14T23:19:23.741Z,5.80
2019-04-14T23:22:02.826Z,5.80
2019-04-14T23:24:32.958Z,5.70
2019-04-14T23:27:01.408Z,5.70
2019-04-14T23:29:29.888Z,5.70
2019-04-14T23:31:58.641Z,5.80
2019-04-14T23:34:27.164Z,5.90
2019-04-14T23:36:55.916Z,5.90
2019-04-14T23:39:24.365Z,5.90
2019-04-14T23:41:52.896Z,6.00
2019-04-14T23:44:21.366Z,6.00
2019-04-14T23:46:49.844Z,6.00
2019-04-14T23:49:18.378Z,6.00
2019-04-14T23:51:46.913Z,6.00
2019-04-14T23:54:15.440Z,5.90
2019-04-14T23:56:43.909Z,5.90
2019-04-14T23:59:12.392Z,6.00
